createdAt,value
2018-09-27T00:00:38.429Z,75.30
2018-09-27T00:03:06.011Z,74.95
2018-09-27T00:05:33.458Z,75.10
2018-09-27T00:08:00.866Z,75.37
2018-09-27T00:10:28.338Z,76.07
2018-09-27T00:12:56.041Z,76.50
2018-09-27T00:15:23.445Z,76.50
2018-09-27T00:17:50.805Z,76.40
2018-09-27T00:20:18.278Z,76.37
2018-09-27T00:22:45.664Z,77.08
2018-09-27T00:25:13.125Z,77.48
2018-09-27T00:27:40.586Z,77.61
2018-09-27T00:30:08.076Z,78.00
2018-09-27T00:32:35.549Z,78.44
2018-09-27T00:35:03.118Z,78.52
2018-09-27T00:37:30.749Z,78.78
2018-09-27T00:39:58.272Z,78.55
2018-09-27T00:42:25.758Z,78.60
2018-09-27T00:44:53.207Z,78.77
2018-09-27T00:47:20.679Z,78.75
2018-09-27T00:49:48.250Z,79.20
2018-09-27T00:52:15.999Z,79.90
2018-09-27T00:54:43.417Z,80.07
2018-09-27T00:57:11.269Z,79.84
2018-09-27T00:59:38.745Z,79.97
2018-09-27T01:02:06.402Z,79.93
2018-09-27T01:04:33.923Z,79.78
2018-09-27T01:07:01.457Z,79.83
2018-09-27T01:09:28.857Z,80.10
2018-09-27T01:11:56.288Z,80.08
2018-09-27T01:14:23.718Z,79.93
2018-09-27T01:16:51.128Z,80.12
2018-09-27T01:19:18.555Z,80.05
2018-09-27T01:21:45.987Z,80.58
2018-09-27T01:24:13.494Z,80.46
2018-09-27T01:26:41.011Z,80.96
2018-09-27T01:29:08.458Z,80.84
2018-09-27T01:31:35.858Z,80.70
2018-09-27T01:34:03.619Z,80.47
2018-09-27T01:36:31.041Z,80.23
2018-09-27T01:38:58.448Z,80.39
2018-09-27T01:41:25.922Z,80.55
2018-09-27T01:43:53.424Z,80.44
2018-09-27T01:46:20.992Z,80.17
2018-09-27T01:48:48.547Z,80.05
2018-09-27T01:51:15.995Z,79.98
2018-09-27T01:53:43.417Z,80.05
2018-09-27T01:56:11.145Z,80.24
2018-09-27T01:58:38.536Z,80.21
2018-09-27T02:01:06.456Z,80.52
2018-09-27T02:03:33.884Z,80.99
2018-09-27T02:06:01.339Z,81.35
2018-09-27T02:08:28.740Z,81.35
2018-09-27T02:10:56.394Z,81.42
2018-09-27T02:13:23.753Z,81.13
2018-09-27T02:15:51.274Z,81.26
2018-09-27T02:18:18.676Z,81.63
2018-09-27T02:20:46.134Z,81.53
2018-09-27T02:23:13.527Z,81.40
2018-09-27T02:25:41.047Z,81.58
2018-09-27T02:28:08.561Z,81.56
2018-09-27T02:30:36.447Z,81.88
2018-09-27T02:33:04.000Z,82.15
2018-09-27T02:35:31.446Z,82.22
2018-09-27T02:37:58.869Z,82.58
2018-09-27T02:40:26.321Z,82.75
2018-09-27T02:42:53.717Z,82.58
2018-09-27T02:45:21.155Z,82.92
2018-09-27T02:47:48.698Z,82.89
2018-09-27T02:50:16.142Z,83.07
2018-09-27T02:52:43.656Z,83.33
2018-09-27T02:55:11.348Z,83.23
2018-09-27T02:57:38.786Z,83.47
2018-09-27T03:00:06.357Z,83.71
2018-09-27T03:02:33.926Z,84.08
2018-09-27T03:05:01.350Z,83.86
2018-09-27T03:07:29.018Z,84.20
2018-09-27T03:09:56.614Z,84.10
2018-09-27T03:12:24.034Z,84.38
2018-09-27T03:14:51.440Z,84.44
2018-09-27T03:17:18.870Z,84.39
2018-09-27T03:19:46.265Z,84.61
2018-09-27T03:22:13.688Z,84.45
2018-09-27T03:24:41.370Z,84.71
2018-09-27T03:27:08.806Z,84.63
2018-09-27T03:29:36.450Z,84.63
2018-09-27T03:32:03.920Z,84.73
2018-09-27T03:34:31.321Z,84.79
2018-09-27T03:36:59.035Z,84.74
2018-09-27T03:39:26.632Z,84.78
2018-09-27T03:41:54.157Z,84.92
2018-09-27T03:44:21.584Z,85.15
2018-09-27T03:46:49.002Z,85.45
2018-09-27T03:49:16.433Z,85.62
2018-09-27T03:51:43.848Z,85.95
2018-09-27T03:54:11.474Z,86.00
2018-09-27T03:56:38.998Z,85.64
2018-09-27T03:59:06.389Z,85.45
2018-09-27T04:01:33.910Z,85.58
2018-09-27T04:04:01.577Z,85.77
2018-09-27T04:06:29.002Z,85.58
2018-09-27T04:08:56.577Z,85.53
2018-09-27T04:11:24.046Z,85.67
2018-09-27T04:13:51.562Z,85.60
2018-09-27T04:16:19.133Z,85.85
2018-09-27T04:18:46.937Z,85.66
2018-09-27T04:21:14.366Z,85.62
2018-09-27T04:23:41.798Z,85.88
2018-09-27T04:26:09.394Z,85.83
2018-09-27T04:28:36.810Z,85.82
2018-09-27T04:31:04.354Z,86.03
2018-09-27T04:33:31.774Z,86.12
2018-09-27T04:35:59.206Z,85.96
2018-09-27T04:38:26.623Z,86.07
2018-09-27T04:40:54.288Z,85.73
2018-09-27T04:43:21.814Z,85.90
2018-09-27T04:45:49.646Z,85.89
2018-09-27T04:48:17.022Z,85.97
2018-09-27T04:50:44.416Z,86.13
2018-09-27T04:53:11.857Z,86.41
2018-09-27T04:55:39.284Z,86.30
2018-09-27T04:58:06.770Z,86.26
2018-09-27T05:00:34.211Z,86.51
2018-09-27T05:03:01.638Z,86.70
2018-09-27T05:05:29.177Z,86.89
2018-09-27T05:07:56.641Z,86.83
2018-09-27T05:10:24.040Z,86.71
2018-09-27T05:12:51.428Z,86.71
2018-09-27T05:15:18.870Z,86.85
2018-09-27T05:17:46.240Z,86.73
2018-09-27T05:20:13.670Z,87.04
2018-09-27T05:22:41.164Z,86.73
2018-09-27T05:25:08.633Z,86.62
2018-09-27T05:27:36.156Z,86.82
2018-09-27T05:30:03.734Z,86.71
2018-09-27T05:32:31.153Z,86.61
2018-09-27T05:34:58.633Z,86.54
2018-09-27T05:37:26.086Z,86.45
2018-09-27T05:39:53.506Z,86.20
2018-09-27T05:42:20.952Z,85.95
2018-09-27T05:44:48.384Z,85.81
2018-09-27T05:47:15.800Z,85.53
2018-09-27T05:49:43.240Z,85.16
2018-09-27T05:52:10.688Z,85.71
2018-09-27T05:54:38.096Z,84.40
2018-09-27T05:57:05.602Z,74.76
2018-09-27T05:59:33.174Z,65.41
2018-09-27T06:02:00.648Z,58.17
2018-09-27T06:04:28.052Z,52.71
2018-09-27T06:06:55.569Z,48.35
2018-09-27T06:09:22.983Z,48.12
2018-09-27T06:11:50.418Z,44.89
2018-09-27T06:14:17.867Z,40.91
2018-09-27T06:16:45.313Z,37.39
2018-09-27T06:19:12.728Z,34.82
2018-09-27T06:21:40.263Z,32.00
2018-09-27T06:24:07.953Z,29.49
2018-09-27T06:26:35.377Z,27.68
2018-09-27T06:29:02.889Z,26.44
2018-09-27T06:31:30.348Z,25.56
2018-09-27T06:33:57.993Z,24.97
2018-09-27T06:36:25.577Z,25.57
2018-09-27T06:38:53.253Z,23.72
2018-09-27T06:41:20.744Z,22.73
2018-09-27T06:43:48.178Z,22.39
2018-09-27T06:46:15.659Z,21.58
2018-09-27T06:48:43.127Z,21.11
2018-09-27T06:51:10.539Z,20.22
2018-09-27T06:53:37.966Z,19.85
2018-09-27T06:56:05.972Z,18.35
2018-09-27T06:58:33.381Z,18.55
2018-09-27T07:01:00.965Z,17.75
2018-09-27T07:03:28.307Z,17.77
2018-09-27T07:05:55.854Z,17.05
2018-09-27T07:08:23.333Z,17.17
2018-09-27T07:10:50.721Z,16.33
2018-09-27T07:13:18.147Z,15.97
2018-09-27T07:15:45.577Z,15.37
2018-09-27T07:18:12.987Z,15.39
2018-09-27T07:20:40.608Z,14.70
2018-09-27T07:23:08.053Z,14.36
2018-09-27T07:25:35.439Z,14.50
2018-09-27T07:28:02.990Z,14.32
2018-09-27T07:30:30.429Z,14.32
2018-09-27T07:32:57.830Z,14.03
2018-09-27T07:35:25.317Z,13.43
2018-09-27T07:37:52.972Z,12.90
2018-09-27T07:40:20.401Z,13.06
2018-09-27T07:42:48.010Z,13.19
2018-09-27T07:45:15.434Z,12.79
2018-09-27T07:47:42.941Z,12.53
2018-09-27T07:50:10.467Z,11.52
2018-09-27T07:52:37.950Z,11.66
2018-09-27T07:55:05.511Z,11.38
2018-09-27T07:57:32.931Z,11.29
2018-09-27T08:00:00.453Z,11.35
2018-09-27T08:02:27.878Z,11.30
2018-09-27T08:04:55.309Z,10.93
2018-09-27T08:07:22.712Z,10.52
2018-09-27T08:09:50.106Z,10.49
2018-09-27T08:12:17.527Z,10.19
2018-09-27T08:14:44.988Z,10.21
2018-09-27T08:17:12.387Z,10.11
2018-09-27T08:19:39.778Z,9.92
2018-09-27T08:22:07.339Z,9.31
2018-09-27T08:24:34.711Z,9.83
2018-09-27T08:27:02.146Z,9.81
2018-09-27T08:29:29.710Z,9.75
2018-09-27T08:31:57.098Z,10.00
2018-09-27T08:34:24.640Z,9.52
2018-09-27T08:36:52.041Z,9.42
2018-09-27T08:39:19.448Z,9.59
2018-09-27T08:41:46.865Z,9.85
2018-09-27T08:44:14.240Z,9.79
2018-09-27T08:46:42.316Z,9.69
2018-09-27T08:49:09.742Z,10.03
2018-09-27T08:51:37.359Z,9.83
2018-09-27T08:54:04.724Z,9.85
2018-09-27T08:56:32.280Z,9.69
2018-09-27T08:58:59.622Z,9.79
2018-09-27T09:01:27.123Z,9.82
2018-09-27T09:03:54.542Z,10.48
2018-09-27T09:06:22.126Z,10.32
2018-09-27T09:08:49.514Z,11.51
2018-09-27T09:11:16.998Z,11.91
2018-09-27T09:13:44.490Z,13.14
2018-09-27T09:16:11.870Z,13.43
2018-09-27T09:18:39.322Z,15.30
2018-09-27T09:21:07.079Z,18.44
2018-09-27T09:23:34.922Z,21.08
2018-09-27T09:26:02.499Z,24.76
2018-09-27T09:28:29.938Z,27.49
2018-09-27T09:30:57.494Z,29.02
2018-09-27T09:33:25.066Z,31.19
2018-09-27T09:35:52.675Z,32.67
2018-09-27T09:38:20.043Z,34.38
2018-09-27T09:40:47.514Z,34.95
2018-09-27T09:43:15.079Z,35.58
2018-09-27T09:45:42.690Z,37.09
2018-09-27T09:48:10.378Z,37.69
2018-09-27T09:50:37.862Z,37.13
2018-09-27T09:53:05.358Z,37.73
2018-09-27T09:55:32.878Z,38.08
2018-09-27T09:58:00.402Z,38.68
2018-09-27T10:00:28.130Z,38.52
2018-09-27T10:02:55.846Z,38.73
2018-09-27T10:05:23.287Z,40.18
2018-09-27T10:07:50.698Z,39.78
2018-09-27T10:10:18.186Z,40.51
2018-09-27T10:12:45.564Z,41.39
2018-09-27T10:15:12.982Z,40.03
2018-09-27T10:17:40.534Z,39.64
2018-09-27T10:20:08.006Z,39.63
2018-09-27T10:22:35.424Z,39.81
2018-09-27T10:25:03.120Z,39.25
2018-09-27T10:27:30.719Z,38.66
2018-09-27T10:29:58.102Z,39.13
2018-09-27T10:32:25.548Z,39.26
2018-09-27T10:34:53.124Z,39.19
2018-09-27T10:37:20.595Z,38.70
2018-09-27T10:39:48.502Z,39.40
2018-09-27T10:42:16.424Z,39.34
2018-09-27T10:44:43.821Z,39.58
2018-09-27T10:47:11.305Z,39.55
2018-09-27T10:49:38.793Z,38.71
2018-09-27T10:52:06.682Z,39.04
2018-09-27T10:54:34.101Z,39.88
2018-09-27T10:57:01.647Z,38.76
2018-09-27T10:59:29.138Z,38.36
2018-09-27T11:01:56.744Z,37.48
2018-09-27T11:04:24.469Z,37.43
2018-09-27T11:06:51.962Z,37.43
2018-09-27T11:09:19.401Z,38.11
2018-09-27T11:11:46.928Z,38.16
2018-09-27T11:14:14.320Z,38.01
2018-09-27T11:16:41.859Z,37.88
2018-09-27T11:19:09.240Z,37.14
2018-09-27T11:21:36.739Z,37.16
2018-09-27T11:24:04.206Z,36.85
2018-09-27T11:26:31.696Z,36.20
2018-09-27T11:30:05.766Z,37.12
2018-09-27T11:32:37.775Z,35.22
2018-09-27T11:35:06.466Z,35.59
2018-09-27T11:37:34.005Z,35.04
2018-09-27T11:40:01.463Z,34.57
2018-09-27T11:42:29.046Z,34.78
2018-09-27T11:44:56.435Z,34.87
2018-09-27T11:47:23.868Z,35.59
2018-09-27T11:49:51.419Z,35.81
2018-09-27T11:52:18.769Z,35.38
2018-09-27T11:54:46.307Z,35.02
2018-09-27T11:57:13.887Z,34.72
2018-09-27T11:59:41.337Z,34.64
2018-09-27T12:02:08.734Z,34.69
2018-09-27T12:04:36.217Z,34.19
2018-09-27T12:07:03.908Z,34.49
2018-09-27T12:09:31.453Z,34.51
2018-09-27T12:11:59.627Z,34.72
2018-09-27T12:14:27.061Z,34.25
2018-09-27T12:16:54.637Z,34.31
2018-09-27T12:19:22.237Z,33.36
2018-09-27T12:21:49.773Z,32.79
2018-09-27T12:24:17.173Z,33.86
2018-09-27T12:26:44.663Z,33.61
2018-09-27T12:29:12.348Z,31.94
2018-09-27T12:31:39.902Z,31.69
2018-09-27T12:34:07.432Z,31.62
2018-09-27T12:36:34.816Z,31.85
2018-09-27T12:39:03.915Z,32.48
2018-09-27T12:41:31.572Z,32.51
2018-09-27T12:43:58.996Z,31.79
2018-09-27T12:46:26.497Z,31.78
2018-09-27T12:48:54.478Z,30.78
2018-09-27T12:51:22.049Z,30.01
2018-09-27T12:53:49.369Z,29.86
2018-09-27T12:56:16.961Z,28.46
2018-09-27T12:58:44.553Z,28.58
2018-09-27T13:01:12.033Z,27.60
2018-09-27T13:03:39.390Z,27.36
2018-09-27T13:06:06.939Z,27.46
2018-09-27T13:08:34.489Z,27.34
2018-09-27T13:11:01.946Z,27.21
2018-09-27T13:13:29.585Z,26.99
2018-09-27T13:15:56.880Z,28.84
2018-09-27T13:18:24.348Z,29.27
2018-09-27T13:20:51.758Z,25.99
2018-09-27T13:23:19.140Z,28.25
2018-09-27T13:25:46.786Z,26.16
2018-09-27T13:28:14.317Z,27.16
2018-09-27T13:30:41.754Z,28.24
2018-09-27T13:33:09.289Z,27.35
2018-09-27T13:35:36.674Z,28.62
2018-09-27T13:38:04.204Z,26.88
2018-09-27T13:40:31.806Z,28.86
2018-09-27T13:42:59.362Z,26.78
2018-09-27T13:45:26.857Z,29.00
2018-09-27T13:47:55.532Z,29.92
2018-09-27T13:50:23.003Z,28.16
2018-09-27T13:52:50.507Z,26.76
2018-09-27T13:55:17.996Z,26.87
2018-09-27T13:57:45.458Z,26.49
2018-09-27T14:00:12.912Z,26.45
2018-09-27T14:02:40.383Z,26.88
2018-09-27T14:05:07.822Z,28.35
2018-09-27T14:07:35.330Z,29.75
2018-09-27T14:10:03.043Z,28.47
2018-09-27T14:12:30.420Z,27.68
2018-09-27T14:14:57.948Z,29.37
2018-09-27T14:17:25.404Z,30.11
2018-09-27T14:19:52.922Z,25.86
2018-09-27T14:22:20.347Z,27.41
2018-09-27T14:24:47.808Z,27.48
2018-09-27T14:27:15.248Z,27.81
2018-09-27T14:29:42.657Z,25.31
2018-09-27T14:32:10.125Z,26.48
2018-09-27T14:34:37.564Z,28.11
2018-09-27T14:37:05.021Z,30.77
2018-09-27T14:39:32.643Z,30.46
2018-09-27T14:42:00.163Z,31.01
2018-09-27T14:44:27.540Z,30.88
2018-09-27T14:46:55.000Z,30.22
2018-09-27T14:49:22.510Z,30.00
2018-09-27T14:51:49.950Z,28.94
2018-09-27T14:54:17.454Z,29.74
2018-09-27T14:56:44.874Z,29.64
2018-09-27T14:59:12.352Z,29.93
2018-09-27T15:01:39.923Z,30.37
2018-09-27T15:04:07.478Z,30.68
2018-09-27T15:06:34.982Z,31.09
2018-09-27T15:09:02.591Z,32.45
2018-09-27T15:11:30.265Z,31.24
2018-09-27T15:13:57.666Z,30.68
2018-09-27T15:16:25.375Z,31.53
2018-09-27T15:18:53.206Z,31.91
2018-09-27T15:21:20.628Z,31.19
2018-09-27T15:23:48.201Z,31.17
2018-09-27T15:26:15.606Z,31.23
2018-09-27T15:28:43.042Z,31.24
2018-09-27T15:31:10.587Z,31.64
2018-09-27T15:33:38.002Z,31.43
2018-09-27T15:36:05.420Z,32.14
2018-09-27T15:38:33.008Z,32.83
2018-09-27T15:41:00.466Z,32.33
2018-09-27T15:43:27.922Z,30.73
2018-09-27T15:45:55.455Z,30.78
2018-09-27T15:48:22.918Z,30.18
2018-09-27T15:50:50.337Z,30.54
2018-09-27T15:53:18.033Z,31.16
2018-09-27T15:55:45.493Z,31.28
2018-09-27T15:58:12.973Z,31.25
2018-09-27T16:00:40.583Z,32.21
2018-09-27T16:03:08.077Z,32.20
2018-09-27T16:05:35.501Z,32.27
2018-09-27T16:08:03.057Z,32.13
2018-09-27T16:10:30.663Z,32.86
2018-09-27T16:12:58.443Z,32.83
2018-09-27T16:15:26.348Z,32.89
2018-09-27T16:17:54.081Z,33.38
2018-09-27T16:20:21.663Z,33.50
2018-09-27T16:22:49.226Z,33.16
2018-09-27T16:25:16.918Z,33.60
2018-09-27T16:27:44.615Z,34.04
2018-09-27T16:30:12.330Z,33.95
2018-09-27T16:32:39.861Z,34.66
2018-09-27T16:35:07.521Z,34.46
2018-09-27T16:37:35.555Z,33.78
2018-09-27T16:40:03.835Z,33.62
2018-09-27T16:42:31.395Z,34.43
2018-09-27T16:44:59.211Z,34.62
2018-09-27T16:47:26.775Z,34.80
2018-09-27T16:49:54.649Z,35.73
2018-09-27T16:52:22.926Z,35.15
2018-09-27T16:54:50.348Z,35.79
2018-09-27T16:57:18.859Z,36.42
2018-09-27T16:59:47.293Z,36.81
2018-09-27T17:02:16.710Z,36.88
2018-09-27T17:04:46.690Z,37.97
2018-09-27T17:07:17.261Z,37.64
2018-09-27T17:09:44.985Z,38.29
2018-09-27T17:12:12.593Z,38.40
2018-09-27T17:14:40.695Z,38.61
2018-09-27T17:17:08.691Z,39.08
2018-09-27T17:19:36.491Z,39.33
2018-09-27T17:22:04.159Z,39.50
2018-09-27T17:24:32.623Z,39.96
2018-09-27T17:27:00.559Z,40.50
2018-09-27T17:29:29.319Z,40.90
2018-09-27T17:31:57.411Z,41.07
2018-09-27T17:34:26.961Z,41.63
2018-09-27T17:36:54.601Z,42.20
2018-09-27T17:39:23.723Z,42.48
2018-09-27T17:41:51.500Z,42.99
2018-09-27T17:44:19.418Z,43.24
2018-09-27T17:46:47.232Z,44.12
2018-09-27T17:49:15.041Z,45.16
2018-09-27T17:51:43.082Z,44.84
2018-09-27T17:54:10.627Z,44.86
2018-09-27T17:56:38.423Z,45.21
2018-09-27T17:59:05.999Z,45.57
2018-09-27T18:01:33.590Z,46.25
2018-09-27T18:04:01.036Z,46.33
2018-09-27T18:06:28.609Z,46.73
2018-09-27T18:08:56.055Z,46.96
2018-09-27T18:11:24.106Z,47.38
2018-09-27T18:13:52.803Z,47.89
2018-09-27T18:16:20.307Z,48.15
2018-09-27T18:18:47.805Z,48.29
2018-09-27T18:21:15.917Z,48.19
2018-09-27T18:23:43.389Z,48.62
2018-09-27T18:26:10.909Z,49.24
2018-09-27T18:28:38.442Z,50.45
2018-09-27T18:31:05.956Z,50.91
2018-09-27T18:33:33.473Z,51.30
2018-09-27T18:36:00.993Z,50.75
2018-09-27T18:38:28.431Z,50.52
2018-09-27T18:40:55.947Z,51.30
2018-09-27T18:43:23.660Z,51.92
2018-09-27T18:45:51.125Z,53.51
2018-09-27T18:48:18.699Z,55.36
2018-09-27T18:50:46.166Z,54.82
2018-09-27T18:53:13.711Z,55.07
2018-09-27T18:55:41.331Z,54.50
2018-09-27T18:58:08.761Z,54.81
2018-09-27T19:00:36.356Z,55.71
2018-09-27T19:03:03.812Z,55.23
2018-09-27T19:05:31.239Z,55.24
2018-09-27T19:07:58.855Z,55.37
2018-09-27T19:10:26.661Z,55.33
2018-09-27T19:12:54.387Z,56.14
2018-09-27T19:15:21.965Z,55.49
2018-09-27T19:17:49.571Z,55.35
2018-09-27T19:20:17.325Z,55.49
2018-09-27T19:22:45.181Z,55.28
2018-09-27T19:25:12.708Z,56.77
2018-09-27T19:27:40.434Z,56.37
2018-09-27T19:30:08.033Z,56.01
2018-09-27T19:32:35.628Z,57.10
2018-09-27T19:35:03.365Z,56.86
2018-09-27T19:37:31.247Z,58.34
2018-09-27T19:39:59.098Z,58.32
2018-09-27T19:42:26.787Z,57.90
2018-09-27T19:44:54.281Z,58.26
2018-09-27T19:47:21.997Z,58.16
2018-09-27T19:49:49.553Z,58.54
2018-09-27T19:52:18.497Z,58.67
2018-09-27T19:54:46.098Z,58.76
2018-09-27T19:57:13.588Z,59.12
2018-09-27T19:59:41.030Z,59.20
2018-09-27T20:02:08.550Z,60.38
2018-09-27T20:04:36.287Z,60.46
2018-09-27T20:07:03.856Z,60.34
2018-09-27T20:09:31.445Z,60.34
2018-09-27T20:11:58.908Z,60.82
2018-09-27T20:14:26.348Z,61.07
2018-09-27T20:16:53.906Z,61.64
2018-09-27T20:19:21.554Z,61.50
2018-09-27T20:21:49.121Z,62.43
2018-09-27T20:24:16.711Z,62.69
2018-09-27T20:26:44.166Z,63.27
2018-09-27T20:29:11.908Z,64.11
2018-09-27T20:31:39.472Z,64.33
2018-09-27T20:34:07.000Z,64.61
2018-09-27T20:36:34.497Z,64.51
2018-09-27T20:39:02.027Z,64.95
2018-09-27T20:41:29.498Z,66.09
2018-09-27T20:43:56.939Z,66.16
2018-09-27T20:46:24.395Z,65.94
2018-09-27T20:48:51.884Z,65.86
2018-09-27T20:51:20.948Z,66.14
2018-09-27T20:53:49.263Z,66.47
2018-09-27T20:56:16.804Z,67.28
2018-09-27T20:58:44.261Z,67.31
2018-09-27T21:01:11.738Z,67.96
2018-09-27T21:03:39.193Z,68.67
2018-09-27T21:06:06.997Z,69.11
2018-09-27T21:08:34.561Z,68.73
2018-09-27T21:11:02.020Z,68.74
2018-09-27T21:13:29.489Z,69.18
2018-09-27T21:15:56.987Z,69.14
2018-09-27T21:18:24.397Z,69.29
2018-09-27T21:20:51.973Z,69.73
2018-09-27T21:23:19.567Z,70.11
2018-09-27T21:25:47.029Z,69.94
2018-09-27T21:28:14.489Z,70.02
2018-09-27T21:30:42.062Z,70.15
2018-09-27T21:33:09.707Z,70.22
2018-09-27T21:35:37.235Z,70.83
2018-09-27T21:38:04.686Z,71.15
2018-09-27T21:40:32.157Z,71.28
2018-09-27T21:42:59.547Z,71.12
2018-09-27T21:45:26.987Z,71.70
2018-09-27T21:47:54.437Z,71.58
2018-09-27T21:50:21.969Z,71.60
2018-09-27T21:52:49.330Z,72.26
2018-09-27T21:55:16.790Z,72.39
2018-09-27T21:57:44.193Z,72.75
2018-09-27T22:00:11.957Z,72.64
2018-09-27T22:02:39.497Z,72.68
2018-09-27T22:05:07.143Z,72.80
2018-09-27T22:07:36.788Z,72.85
2018-09-27T22:10:04.341Z,72.85
2018-09-27T22:12:31.753Z,73.16
2018-09-27T22:14:59.207Z,73.24
2018-09-27T22:17:26.582Z,73.39
2018-09-27T22:19:53.976Z,73.78
2018-09-27T22:22:21.550Z,73.71
2018-09-27T22:24:49.013Z,74.55
2018-09-27T22:27:16.545Z,74.53
2018-09-27T22:29:44.050Z,74.81
2018-09-27T22:32:11.488Z,75.04
2018-09-27T22:34:38.946Z,75.21
2018-09-27T22:37:06.403Z,75.22
2018-09-27T22:39:34.244Z,75.62
2018-09-27T22:42:01.692Z,75.85
2018-09-27T22:44:29.291Z,75.97
2018-09-27T22:46:56.811Z,76.11
2018-09-27T22:49:24.281Z,76.90
2018-09-27T22:51:51.771Z,77.50
2018-09-27T22:54:19.269Z,77.06
2018-09-27T22:56:46.837Z,77.04
2018-09-27T22:59:14.357Z,76.44
2018-09-27T23:01:41.937Z,76.32
2018-09-27T23:04:09.444Z,76.18
2018-09-27T23:06:36.946Z,76.61
2018-09-27T23:09:05.804Z,76.85
2018-09-27T23:11:33.419Z,77.27
2018-09-27T23:14:02.298Z,77.71
2018-09-27T23:16:29.724Z,77.62
2018-09-27T23:18:57.121Z,77.62
2018-09-27T23:21:24.559Z,77.89
2018-09-27T23:23:52.074Z,78.23
2018-09-27T23:26:19.465Z,78.09
2018-09-27T23:28:46.894Z,78.74
2018-09-27T23:31:14.393Z,78.95
2018-09-27T23:33:41.810Z,78.77
2018-09-27T23:36:09.247Z,78.62
2018-09-27T23:38:36.740Z,78.87
2018-09-27T23:41:04.333Z,78.45
2018-09-27T23:43:31.765Z,78.41
2018-09-27T23:45:59.545Z,78.75
2018-09-27T23:48:26.947Z,78.67
2018-09-27T23:50:54.507Z,78.61
2018-09-27T23:53:21.909Z,79.06
2018-09-27T23:55:49.392Z,78.91
2018-09-27T23:58:16.845Z,78.92
